createdAt,value
2022-11-27T00:00:02.768Z,11.67
2022-11-27T00:01:15.170Z,11.68
2022-11-27T00:02:16.702Z,11.69
2022-11-27T00:03:18.432Z,11.70
2022-11-27T00:04:19.992Z,11.70
2022-11-27T00:05:24.226Z,11.70
2022-11-27T00:06:27.351Z,11.67
2022-11-27T00:07:28.837Z,11.66
2022-11-27T00:08:30.476Z,11.55
2022-11-27T00:09:33.786Z,11.55
2022-11-27T00:10:35.286Z,11.54
2022-11-27T00:11:39.370Z,11.50
2022-11-27T00:12:40.836Z,11.47
2022-11-27T00:13:42.360Z,11.47
2022-11-27T00:14:43.858Z,11.45
2022-11-27T00:15:45.387Z,11.45
2022-11-27T00:16:46.869Z,11.41
2022-11-27T00:17:48.323Z,11.40
2022-11-27T00:18:49.801Z,11.39
2022-11-27T00:19:51.320Z,11.38
2022-11-27T00:20:53.904Z,11.35
2022-11-27T00:21:58.462Z,11.31
2022-11-27T00:22:59.924Z,11.30
2022-11-27T00:24:07.779Z,11.28
2022-11-27T00:25:09.424Z,11.28
2022-11-27T00:26:10.950Z,11.28
2022-11-27T00:27:14.232Z,11.27
2022-11-27T00:28:15.755Z,11.26
2022-11-27T00:29:17.249Z,11.25
2022-11-27T00:30:21.766Z,11.23
2022-11-27T00:31:28.502Z,11.22
2022-11-27T00:32:30.184Z,11.18
2022-11-27T00:33:31.829Z,11.15
2022-11-27T00:34:33.302Z,11.08
2022-11-27T00:35:34.810Z,11.07
2022-11-27T00:36:36.339Z,11.06
2022-11-27T00:37:37.851Z,11.05
2022-11-27T00:38:39.481Z,11.01
2022-11-27T00:39:40.970Z,11.00
2022-11-27T00:40:42.429Z,10.99
2022-11-27T00:41:43.946Z,11.00
2022-11-27T00:42:51.481Z,10.97
2022-11-27T00:43:53.822Z,10.97
2022-11-27T00:44:58.309Z,10.93
2022-11-27T00:45:59.872Z,10.90
2022-11-27T00:47:01.422Z,10.86
2022-11-27T00:48:03.934Z,10.81
2022-11-27T00:49:05.613Z,10.77
2022-11-27T00:50:07.453Z,10.69
2022-11-27T00:51:09.484Z,10.69
2022-11-27T00:52:13.577Z,10.61
2022-11-27T00:53:21.119Z,10.58
2022-11-27T00:54:23.064Z,10.54
2022-11-27T00:55:24.695Z,10.53
2022-11-27T00:56:27.015Z,10.51
2022-11-27T00:57:28.573Z,10.53
2022-11-27T00:58:32.789Z,10.55
2022-11-27T00:59:34.306Z,10.56
2022-11-27T01:00:35.802Z,10.56
2022-11-27T01:01:38.616Z,10.56
2022-11-27T01:02:40.251Z,10.55
2022-11-27T01:03:41.790Z,10.55
2022-11-27T01:04:46.476Z,10.54
2022-11-27T01:05:48.010Z,10.52
2022-11-27T01:06:49.478Z,10.53
2022-11-27T01:07:51.090Z,10.52
2022-11-27T01:08:55.447Z,10.52
2022-11-27T01:09:56.932Z,10.50
2022-11-27T01:11:03.784Z,10.48
2022-11-27T01:12:05.507Z,10.37
2022-11-27T01:13:07.036Z,10.37
2022-11-27T01:14:10.977Z,10.40
2022-11-27T01:15:12.518Z,10.41
2022-11-27T01:16:20.732Z,10.39
2022-11-27T01:17:22.261Z,10.40
2022-11-27T01:18:23.738Z,10.41
2022-11-27T01:19:25.183Z,10.39
2022-11-27T01:20:26.752Z,10.40
2022-11-27T01:21:28.851Z,10.41
2022-11-27T01:22:30.296Z,10.40
2022-11-27T01:23:34.891Z,10.39
2022-11-27T01:24:36.357Z,10.39
2022-11-27T01:25:37.962Z,10.40
2022-11-27T01:26:42.426Z,10.39
2022-11-27T01:27:44.358Z,10.38
2022-11-27T01:28:45.887Z,10.39
2022-11-27T01:29:47.905Z,10.39
2022-11-27T01:30:49.688Z,10.39
2022-11-27T01:31:51.144Z,10.40
2022-11-27T01:32:52.672Z,10.41
2022-11-27T01:33:54.916Z,10.42
2022-11-27T01:34:59.352Z,10.42
2022-11-27T01:36:02.475Z,10.43
2022-11-27T01:37:05.988Z,10.43
2022-11-27T01:38:07.473Z,10.42
2022-11-27T01:39:10.174Z,10.44
2022-11-27T01:40:11.831Z,10.44
2022-11-27T01:41:13.253Z,10.44
2022-11-27T01:42:14.703Z,10.44
2022-11-27T01:43:16.310Z,10.42
2022-11-27T01:44:27.264Z,10.43
2022-11-27T01:45:28.770Z,10.41
2022-11-27T01:46:42.281Z,10.42
2022-11-27T01:47:45.869Z,10.41
2022-11-27T01:48:47.332Z,10.41
2022-11-27T01:49:50.096Z,10.40
2022-11-27T01:50:51.605Z,10.38
2022-11-27T01:51:55.601Z,10.39
2022-11-27T01:52:58.969Z,10.37
2022-11-27T01:54:02.817Z,10.36
2022-11-27T01:55:05.993Z,10.36
2022-11-27T01:56:08.371Z,10.35
2022-11-27T01:57:13.874Z,10.34
2022-11-27T01:58:17.543Z,10.33
2022-11-27T01:59:19.024Z,10.31
2022-11-27T02:00:20.721Z,10.29
2022-11-27T02:01:24.347Z,10.27
2022-11-27T02:02:28.281Z,10.25
2022-11-27T02:03:35.453Z,10.25
2022-11-27T02:04:37.983Z,10.24
2022-11-27T02:05:39.671Z,10.23
2022-11-27T02:06:41.142Z,10.22
2022-11-27T02:07:48.597Z,10.21
2022-11-27T02:08:52.485Z,10.19
2022-11-27T02:09:53.961Z,10.19
2022-11-27T02:11:14.589Z,10.18
2022-11-27T02:12:24.784Z,10.12
2022-11-27T02:13:34.802Z,10.08
2022-11-27T02:14:44.486Z,10.10
2022-11-27T02:15:48.711Z,10.08
2022-11-27T02:16:59.314Z,9.98
2022-11-27T02:18:03.618Z,9.97
2022-11-27T02:19:08.916Z,9.99
2022-11-27T02:20:25.594Z,9.97
2022-11-27T02:21:27.056Z,9.97
2022-11-27T02:22:34.675Z,9.95
2022-11-27T02:23:54.257Z,9.97
2022-11-27T02:25:19.649Z,9.96
2022-11-27T02:26:45.537Z,9.97
2022-11-27T02:27:49.599Z,9.99
2022-11-27T02:28:51.016Z,9.98
2022-11-27T02:29:54.485Z,9.99
2022-11-27T02:31:03.564Z,9.99
2022-11-27T02:32:20.346Z,9.99
2022-11-27T02:33:21.842Z,10.00
2022-11-27T02:34:43.496Z,10.01
2022-11-27T02:35:48.225Z,9.99
2022-11-27T02:36:50.410Z,9.99
2022-11-27T02:38:02.309Z,9.98
2022-11-27T02:39:05.139Z,9.97
2022-11-27T02:40:06.875Z,9.95
2022-11-27T02:41:19.382Z,9.94
2022-11-27T02:42:21.001Z,9.95
2022-11-27T02:43:29.851Z,9.94
2022-11-27T02:44:31.760Z,9.94
2022-11-27T02:45:39.701Z,9.93
2022-11-27T02:46:41.344Z,9.91
2022-11-27T02:47:43.971Z,9.90
2022-11-27T02:48:55.451Z,9.88
2022-11-27T02:49:57.193Z,9.85
2022-11-27T02:51:02.514Z,9.83
2022-11-27T02:52:04.001Z,9.80
2022-11-27T02:53:07.031Z,9.81
2022-11-27T02:54:09.681Z,9.79
2022-11-27T02:55:11.751Z,9.79
2022-11-27T02:56:14.995Z,9.78
2022-11-27T02:57:16.530Z,9.76
2022-11-27T02:58:18.238Z,9.75
2022-11-27T02:59:19.699Z,9.72
2022-11-27T03:00:21.184Z,9.70
2022-11-27T03:01:22.763Z,9.68
2022-11-27T03:02:27.510Z,9.67
2022-11-27T03:03:29.931Z,9.66
2022-11-27T03:04:34.566Z,9.64
2022-11-27T03:05:37.642Z,9.63
2022-11-27T03:06:42.085Z,9.63
2022-11-27T03:07:46.437Z,9.61
2022-11-27T03:08:54.408Z,9.59
2022-11-27T03:09:56.964Z,9.59
2022-11-27T03:11:01.183Z,9.56
2022-11-27T03:12:03.385Z,9.55
2022-11-27T03:13:11.990Z,9.53
2022-11-27T03:14:13.631Z,9.52
2022-11-27T03:15:15.115Z,9.53
2022-11-27T03:16:34.942Z,9.51
2022-11-27T03:17:41.383Z,9.49
2022-11-27T03:18:51.930Z,9.48
2022-11-27T03:19:54.711Z,9.45
2022-11-27T03:21:01.708Z,9.44
2022-11-27T03:22:06.195Z,9.43
2022-11-27T03:23:07.638Z,9.42
2022-11-27T03:24:09.342Z,9.41
2022-11-27T03:25:10.796Z,9.40
2022-11-27T03:26:12.278Z,9.38
2022-11-27T03:27:18.439Z,9.34
2022-11-27T03:28:20.011Z,9.32
2022-11-27T03:29:29.451Z,9.30
2022-11-27T03:30:30.942Z,9.30
2022-11-27T03:31:32.510Z,9.28
2022-11-27T03:32:34.118Z,9.28
2022-11-27T03:33:35.566Z,9.25
2022-11-27T03:34:37.060Z,9.18
2022-11-27T03:35:38.552Z,9.23
2022-11-27T03:36:40.022Z,9.20
2022-11-27T03:37:41.721Z,9.20
2022-11-27T03:38:43.335Z,9.19
2022-11-27T03:39:47.138Z,9.16
2022-11-27T03:40:55.196Z,9.14
2022-11-27T03:42:10.465Z,9.12
2022-11-27T03:43:14.278Z,9.10
2022-11-27T03:44:24.809Z,9.09
2022-11-27T03:45:37.849Z,9.05
2022-11-27T03:46:57.844Z,9.03
2022-11-27T03:48:11.575Z,9.00
2022-11-27T03:49:24.636Z,8.99
2022-11-27T03:50:32.941Z,8.97
2022-11-27T03:51:46.318Z,8.93
2022-11-27T03:52:59.456Z,8.94
2022-11-27T03:54:12.994Z,8.93
2022-11-27T03:55:23.462Z,8.92
2022-11-27T03:56:41.842Z,8.91
2022-11-27T03:57:57.970Z,8.90
2022-11-27T03:59:01.029Z,8.89
2022-11-27T04:00:05.512Z,8.88
2022-11-27T04:01:08.662Z,8.87
2022-11-27T04:02:17.818Z,8.87
2022-11-27T04:03:26.978Z,8.77
2022-11-27T04:04:28.486Z,8.75
2022-11-27T04:05:30.021Z,8.74
2022-11-27T04:06:31.511Z,8.75
2022-11-27T04:07:33.098Z,8.76
2022-11-27T04:08:34.930Z,8.74
2022-11-27T04:09:36.415Z,8.75
2022-11-27T04:10:42.700Z,8.75
2022-11-27T04:11:44.167Z,8.74
2022-11-27T04:12:45.624Z,8.76
2022-11-27T04:13:47.069Z,8.75
2022-11-27T04:14:48.596Z,8.78
2022-11-27T04:15:53.240Z,8.78
2022-11-27T04:16:54.790Z,8.79
2022-11-27T04:17:56.353Z,8.79
2022-11-27T04:18:57.795Z,8.79
2022-11-27T04:19:59.243Z,8.78
2022-11-27T04:21:02.086Z,8.80
2022-11-27T04:22:09.221Z,8.80
2022-11-27T04:23:10.680Z,8.80
2022-11-27T04:24:12.211Z,8.81
2022-11-27T04:25:13.897Z,8.84
2022-11-27T04:26:15.353Z,8.83
2022-11-27T04:27:16.862Z,8.83
2022-11-27T04:28:18.313Z,8.83
2022-11-27T04:29:19.859Z,8.83
2022-11-27T04:30:21.612Z,8.84
2022-11-27T04:31:23.142Z,8.87
2022-11-27T04:32:24.785Z,8.81
2022-11-27T04:33:26.271Z,8.79
2022-11-27T04:34:27.725Z,8.67
2022-11-27T04:35:32.246Z,8.54
2022-11-27T04:36:39.014Z,8.39
2022-11-27T04:37:41.045Z,8.38
2022-11-27T04:38:42.522Z,8.29
2022-11-27T04:40:09.749Z,8.24
2022-11-27T04:41:11.202Z,8.17
2022-11-27T04:42:12.730Z,8.08
2022-11-27T04:43:14.268Z,7.96
2022-11-27T04:44:15.740Z,7.87
2022-11-27T04:45:19.559Z,7.78
2022-11-27T04:46:21.656Z,7.72
2022-11-27T04:47:23.161Z,7.74
2022-11-27T04:48:24.674Z,7.75
2022-11-27T04:49:26.165Z,7.69
2022-11-27T04:50:36.222Z,7.65
2022-11-27T04:51:37.697Z,7.68
2022-11-27T04:52:39.188Z,7.66
2022-11-27T04:53:40.725Z,7.57
2022-11-27T04:54:42.394Z,7.58
2022-11-27T04:55:44.082Z,7.63
2022-11-27T04:56:48.320Z,7.65
2022-11-27T04:57:52.380Z,7.65
2022-11-27T04:58:53.855Z,7.56
2022-11-27T05:00:04.657Z,7.57
2022-11-27T05:01:07.631Z,7.58
2022-11-27T05:02:09.183Z,7.54
2022-11-27T05:03:13.456Z,7.51
2022-11-27T05:04:14.993Z,7.42
2022-11-27T05:05:19.606Z,7.31
2022-11-27T05:06:22.648Z,7.44
2022-11-27T05:07:24.275Z,7.41
2022-11-27T05:08:25.986Z,7.44
2022-11-27T05:09:27.497Z,7.51
2022-11-27T05:10:28.954Z,7.52
2022-11-27T05:11:37.631Z,7.57
2022-11-27T05:12:39.099Z,7.62
2022-11-27T05:13:40.547Z,7.66
2022-11-27T05:14:42.312Z,7.71
2022-11-27T05:15:44.046Z,7.72
2022-11-27T05:16:47.124Z,7.71
2022-11-27T05:17:48.574Z,7.70
2022-11-27T05:18:50.077Z,7.65
2022-11-27T05:19:51.604Z,7.65
2022-11-27T05:20:56.906Z,7.65
2022-11-27T05:21:58.482Z,7.66
2022-11-27T05:22:59.923Z,7.69
2022-11-27T05:24:01.450Z,7.72
2022-11-27T05:25:02.992Z,7.76
2022-11-27T05:26:04.503Z,7.75
2022-11-27T05:27:05.983Z,7.76
2022-11-27T05:28:07.470Z,7.79
2022-11-27T05:29:09.106Z,7.77
2022-11-27T05:30:10.681Z,7.77
2022-11-27T05:31:12.204Z,7.78
2022-11-27T05:32:13.785Z,7.70
2022-11-27T05:33:15.877Z,7.72
2022-11-27T05:34:20.119Z,7.77
2022-11-27T05:35:21.679Z,7.70
2022-11-27T05:36:23.187Z,7.71
2022-11-27T05:37:24.994Z,7.74
2022-11-27T05:38:29.494Z,7.70
2022-11-27T05:39:30.925Z,7.64
2022-11-27T05:40:33.992Z,7.67
2022-11-27T05:41:35.857Z,7.67
2022-11-27T05:42:38.913Z,7.70
2022-11-27T05:43:40.406Z,7.58
2022-11-27T05:44:42.108Z,7.57
2022-11-27T05:45:43.860Z,7.58
2022-11-27T05:46:45.494Z,7.61
2022-11-27T05:47:47.012Z,7.55
2022-11-27T05:48:51.154Z,7.57
2022-11-27T05:49:52.679Z,7.37
2022-11-27T05:50:54.150Z,7.32
2022-11-27T05:51:55.671Z,7.30
2022-11-27T05:52:57.111Z,7.21
2022-11-27T05:53:58.595Z,7.18
2022-11-27T05:55:03.230Z,7.24
2022-11-27T05:57:46.130Z,7.22
2022-11-27T05:58:51.692Z,7.18
2022-11-27T05:59:53.176Z,7.08
2022-11-27T06:00:54.658Z,7.17
2022-11-27T06:01:56.153Z,7.16
2022-11-27T06:02:57.667Z,7.18
2022-11-27T06:04:01.936Z,7.24
2022-11-27T06:05:03.450Z,7.29
2022-11-27T06:06:08.131Z,7.35
2022-11-27T06:07:09.702Z,7.36
2022-11-27T06:08:11.141Z,7.35
2022-11-27T06:09:13.731Z,7.39
2022-11-27T06:10:15.442Z,7.46
2022-11-27T06:11:18.610Z,7.50
2022-11-27T06:12:20.152Z,7.55
2022-11-27T06:13:21.590Z,7.57
2022-11-27T06:14:23.070Z,7.60
2022-11-27T06:15:24.557Z,7.56
2022-11-27T06:16:26.131Z,7.54
2022-11-27T06:17:27.742Z,7.55
2022-11-27T06:18:29.193Z,7.57
2022-11-27T06:19:30.658Z,7.56
2022-11-27T06:20:32.190Z,7.51
2022-11-27T06:21:34.874Z,7.49
2022-11-27T06:22:39.139Z,7.53
2022-11-27T06:23:43.893Z,7.54
2022-11-27T06:24:46.055Z,7.48
2022-11-27T06:27:03.469Z,7.57
2022-11-27T06:28:04.957Z,7.59
2022-11-27T06:29:06.416Z,7.62
2022-11-27T06:30:08.137Z,7.63
2022-11-27T06:31:18.043Z,7.60
2022-11-27T06:32:19.957Z,7.53
2022-11-27T06:33:21.399Z,7.55
2022-11-27T06:34:22.885Z,7.51
2022-11-27T06:35:24.450Z,7.49
2022-11-27T06:36:32.665Z,7.52
2022-11-27T06:37:39.933Z,7.58
2022-11-27T06:38:41.441Z,7.63
2022-11-27T06:39:42.918Z,7.63
2022-11-27T06:40:47.458Z,7.67
2022-11-27T06:41:48.940Z,7.71
2022-11-27T06:42:53.325Z,7.72
2022-11-27T06:43:55.053Z,7.70
2022-11-27T06:44:56.750Z,7.67
2022-11-27T06:45:58.546Z,7.70
2022-11-27T06:47:03.015Z,7.73
2022-11-27T06:48:04.604Z,7.74
2022-11-27T06:49:06.065Z,7.77
2022-11-27T06:50:07.845Z,7.76
2022-11-27T06:51:10.105Z,7.49
2022-11-27T06:52:11.635Z,7.49
2022-11-27T06:53:13.133Z,7.54
2022-11-27T06:54:16.047Z,7.53
2022-11-27T06:55:17.526Z,7.51
2022-11-27T06:56:22.222Z,7.50
2022-11-27T06:57:23.682Z,7.51
2022-11-27T06:58:31.163Z,7.50
2022-11-27T06:59:32.892Z,7.55
2022-11-27T07:00:36.544Z,7.58
2022-11-27T07:01:38.104Z,7.56
2022-11-27T07:02:39.616Z,7.53
2022-11-27T07:03:41.168Z,7.52
2022-11-27T07:04:45.870Z,7.52
2022-11-27T07:05:47.354Z,7.55
2022-11-27T07:06:48.857Z,7.54
2022-11-27T07:07:50.353Z,7.53
2022-11-27T07:08:52.356Z,7.48
2022-11-27T07:09:53.837Z,7.45
2022-11-27T07:11:05.307Z,7.45
2022-11-27T07:12:08.225Z,7.48
2022-11-27T07:13:09.728Z,7.50
2022-11-27T07:14:11.187Z,7.50
2022-11-27T07:15:12.668Z,7.51
2022-11-27T07:16:14.309Z,7.54
2022-11-27T07:17:15.821Z,7.55
2022-11-27T07:18:17.385Z,7.54
2022-11-27T07:19:18.817Z,7.54
2022-11-27T07:20:20.274Z,7.55
2022-11-27T07:21:21.743Z,7.57
2022-11-27T07:22:23.237Z,7.59
2022-11-27T07:23:27.259Z,7.54
2022-11-27T07:24:28.743Z,7.55
2022-11-27T07:25:30.307Z,7.55
2022-11-27T07:26:31.790Z,7.57
2022-11-27T07:27:36.342Z,7.58
2022-11-27T07:28:43.826Z,7.59
2022-11-27T07:29:45.331Z,7.59
2022-11-27T07:30:53.706Z,7.62
2022-11-27T07:32:01.303Z,7.64
2022-11-27T07:33:02.851Z,7.62
2022-11-27T07:34:07.202Z,7.62
2022-11-27T07:35:13.244Z,7.64
2022-11-27T07:36:18.504Z,7.66
2022-11-27T07:37:20.021Z,7.70
2022-11-27T07:38:23.008Z,7.71
2022-11-27T07:39:46.397Z,7.70
2022-11-27T07:40:46.051Z,7.71
2022-11-27T07:41:50.241Z,7.71
2022-11-27T07:42:51.783Z,7.71
2022-11-27T07:43:54.019Z,7.72
2022-11-27T07:45:04.146Z,7.72
2022-11-27T07:46:06.094Z,7.70
2022-11-27T07:47:07.671Z,7.71
2022-11-27T07:48:09.178Z,7.73
2022-11-27T07:49:10.684Z,7.68
2022-11-27T07:50:12.474Z,7.65
2022-11-27T07:51:14.843Z,7.68
2022-11-27T07:52:16.325Z,7.71
2022-11-27T07:53:18.142Z,7.71
2022-11-27T07:54:19.611Z,7.72
2022-11-27T07:55:21.050Z,7.67
2022-11-27T07:56:31.178Z,7.68
2022-11-27T07:57:32.662Z,7.63
2022-11-27T07:58:34.149Z,7.59
2022-11-27T07:59:35.587Z,7.60
2022-11-27T08:00:37.317Z,7.59
2022-11-27T08:01:38.874Z,7.60
2022-11-27T08:02:43.392Z,7.55
2022-11-27T08:03:45.183Z,7.52
2022-11-27T08:04:47.069Z,7.52
2022-11-27T08:05:48.608Z,7.56
2022-11-27T08:06:50.222Z,7.57
2022-11-27T08:07:51.760Z,7.59
2022-11-27T08:08:56.686Z,7.59
2022-11-27T08:09:58.334Z,7.60
2022-11-27T08:10:59.798Z,7.63
2022-11-27T08:12:06.528Z,7.65
2022-11-27T08:13:10.419Z,7.67
2022-11-27T08:14:11.915Z,7.68
2022-11-27T08:15:13.402Z,7.66
2022-11-27T08:16:15.127Z,7.64
2022-11-27T08:17:16.622Z,7.64
2022-11-27T08:18:18.430Z,7.66
2022-11-27T08:19:19.903Z,7.61
2022-11-27T08:20:21.434Z,7.61
2022-11-27T08:21:23.026Z,7.64
2022-11-27T08:22:24.461Z,7.68
2022-11-27T08:23:25.942Z,7.71
2022-11-27T08:24:27.431Z,7.73
2022-11-27T08:25:29.093Z,7.73
2022-11-27T08:26:30.595Z,7.66
2022-11-27T08:27:33.133Z,7.65
2022-11-27T08:28:34.819Z,7.67
2022-11-27T08:29:36.626Z,7.69
2022-11-27T08:30:38.095Z,7.71
2022-11-27T08:31:42.436Z,7.70
2022-11-27T08:32:44.186Z,7.74
2022-11-27T08:33:48.707Z,7.79
2022-11-27T08:34:50.159Z,7.82
2022-11-27T08:35:51.639Z,7.85
2022-11-27T08:36:53.215Z,7.82
2022-11-27T08:37:54.675Z,7.85
2022-11-27T08:38:56.290Z,7.88
2022-11-27T08:39:57.787Z,7.89
2022-11-27T08:41:00.989Z,7.92
2022-11-27T08:42:02.503Z,7.95
2022-11-27T08:43:04.019Z,7.99
2022-11-27T08:44:09.156Z,8.03
2022-11-27T08:45:11.378Z,8.04
2022-11-27T08:46:12.963Z,8.02
2022-11-27T08:47:16.799Z,8.01
2022-11-27T08:48:21.455Z,8.04
2022-11-27T08:49:23.034Z,8.01
2022-11-27T08:50:24.684Z,8.05
2022-11-27T08:51:26.188Z,8.03
2022-11-27T08:52:27.640Z,7.96
2022-11-27T08:53:29.206Z,8.01
2022-11-27T08:54:30.658Z,8.01
2022-11-27T08:55:38.218Z,8.00
2022-11-27T08:56:39.738Z,7.98
2022-11-27T08:57:41.204Z,7.97
2022-11-27T08:58:50.519Z,7.98
2022-11-27T08:59:52.013Z,7.94
2022-11-27T09:00:53.566Z,7.89
2022-11-27T09:01:55.069Z,7.88
2022-11-27T09:03:00.140Z,7.90
2022-11-27T09:04:02.188Z,7.90
2022-11-27T09:05:05.116Z,7.87
2022-11-27T09:06:07.647Z,7.92
2022-11-27T09:07:11.981Z,7.98
2022-11-27T09:08:20.060Z,8.05
2022-11-27T09:09:21.548Z,8.05
2022-11-27T09:10:23.159Z,8.09
2022-11-27T09:11:24.624Z,8.10
2022-11-27T09:12:27.405Z,8.01
2022-11-27T09:13:28.907Z,7.92
2022-11-27T09:14:30.406Z,7.87
2022-11-27T09:15:31.894Z,7.88
2022-11-27T09:16:58.747Z,7.96
2022-11-27T09:18:02.626Z,8.05
2022-11-27T09:19:04.118Z,8.03
2022-11-27T09:20:06.281Z,8.09
2022-11-27T09:21:08.883Z,8.12
2022-11-27T09:22:10.377Z,8.13
2022-11-27T09:23:14.483Z,8.18
2022-11-27T09:24:16.182Z,8.24
2022-11-27T09:25:17.748Z,8.26
2022-11-27T09:26:19.191Z,8.29
2022-11-27T09:27:20.672Z,8.33
2022-11-27T09:28:23.014Z,8.37
2022-11-27T09:29:33.722Z,8.43
2022-11-27T09:30:35.271Z,8.45
2022-11-27T09:31:37.138Z,8.45
2022-11-27T09:32:38.633Z,8.43
2022-11-27T09:33:47.902Z,8.48
2022-11-27T09:34:51.588Z,8.45
2022-11-27T09:35:53.224Z,8.47
2022-11-27T09:36:54.717Z,8.51
2022-11-27T09:37:56.510Z,8.49
2022-11-27T09:38:58.634Z,8.49
2022-11-27T09:40:00.176Z,8.54
2022-11-27T09:41:11.431Z,8.62
2022-11-27T09:42:15.523Z,8.66
2022-11-27T09:43:17.420Z,8.73
2022-11-27T09:44:46.454Z,8.78
2022-11-27T09:45:54.654Z,8.81
2022-11-27T09:46:57.052Z,8.85
2022-11-27T09:47:59.254Z,8.85
2022-11-27T09:49:04.878Z,8.89
2022-11-27T09:50:08.406Z,8.95
2022-11-27T09:51:28.792Z,8.97
2022-11-27T09:52:36.814Z,9.00
2022-11-27T09:53:58.002Z,9.02
2022-11-27T09:55:04.091Z,9.04
2022-11-27T09:56:05.726Z,9.04
2022-11-27T09:57:07.447Z,9.05
2022-11-27T09:58:16.211Z,9.03
2022-11-27T09:59:22.107Z,9.04
2022-11-27T10:00:23.790Z,9.07
2022-11-27T10:01:33.659Z,8.97
2022-11-27T10:02:40.370Z,8.98
2022-11-27T10:03:42.614Z,9.02
2022-11-27T10:05:05.778Z,9.02
2022-11-27T10:06:15.795Z,9.01
2022-11-27T10:07:37.670Z,8.99
2022-11-27T10:09:08.756Z,8.98
2022-11-27T10:10:21.268Z,8.99
2022-11-27T10:11:26.605Z,9.03
2022-11-27T10:12:33.749Z,9.05
2022-11-27T10:13:41.655Z,8.99
2022-11-27T10:14:58.026Z,8.95
2022-11-27T10:16:04.088Z,8.96
2022-11-27T10:17:05.603Z,8.95
2022-11-27T10:18:19.546Z,8.97
2022-11-27T10:19:32.836Z,8.96
2022-11-27T10:20:34.278Z,8.97
2022-11-27T10:21:45.110Z,9.01
2022-11-27T10:22:59.116Z,9.02
2022-11-27T10:24:03.772Z,8.96
2022-11-27T10:25:42.904Z,8.96
2022-11-27T10:26:50.493Z,9.00
2022-11-27T10:27:59.106Z,8.97
2022-11-27T10:29:32.249Z,9.02
2022-11-27T10:30:36.227Z,9.01
2022-11-27T10:31:41.490Z,8.96
2022-11-27T10:32:58.453Z,9.02
2022-11-27T10:34:03.613Z,9.14
2022-11-27T10:35:12.751Z,9.28
2022-11-27T10:36:25.893Z,9.42
2022-11-27T10:37:28.570Z,9.53
2022-11-27T10:38:39.205Z,9.58
2022-11-27T10:39:42.876Z,9.59
2022-11-27T10:40:53.599Z,9.60
2022-11-27T10:42:08.796Z,9.64
2022-11-27T10:43:18.592Z,9.71
2022-11-27T10:44:36.322Z,9.78
2022-11-27T10:45:44.379Z,9.83
2022-11-27T10:46:45.984Z,9.74
2022-11-27T10:47:48.359Z,9.71
2022-11-27T10:48:49.870Z,9.69
2022-11-27T10:49:51.347Z,9.72
2022-11-27T10:50:52.834Z,9.70
2022-11-27T10:51:54.385Z,9.62
2022-11-27T10:52:56.967Z,9.58
2022-11-27T10:54:05.650Z,9.55
2022-11-27T10:55:12.388Z,9.50
2022-11-27T10:56:15.570Z,9.39
2022-11-27T10:57:25.206Z,9.39
2022-11-27T10:58:34.357Z,9.42
2022-11-27T10:59:37.899Z,9.46
2022-11-27T11:00:45.214Z,9.50
2022-11-27T11:01:50.181Z,9.42
2022-11-27T11:03:05.001Z,9.44
2022-11-27T11:04:18.686Z,9.44
2022-11-27T11:06:53.266Z,9.38
2022-11-27T11:08:02.330Z,9.43
2022-11-27T11:09:05.340Z,9.46
2022-11-27T11:10:25.562Z,9.51
2022-11-27T11:11:27.133Z,9.53
2022-11-27T11:12:28.650Z,9.59
2022-11-27T11:13:50.667Z,9.56
2022-11-27T11:14:52.277Z,9.58
2022-11-27T11:16:00.754Z,9.55
2022-11-27T11:17:03.303Z,9.53
2022-11-27T11:18:04.890Z,9.55
2022-11-27T11:19:30.554Z,9.59
2022-11-27T11:20:32.039Z,9.65
2022-11-27T11:21:40.434Z,9.68
2022-11-27T11:22:45.416Z,9.66
2022-11-27T11:23:51.137Z,9.67
2022-11-27T11:25:01.702Z,9.72
2022-11-27T11:26:04.678Z,9.71
2022-11-27T11:27:07.213Z,9.72
2022-11-27T11:28:14.503Z,9.67
2022-11-27T11:29:27.156Z,9.74
2022-11-27T11:30:33.370Z,9.73
2022-11-27T11:31:36.211Z,9.79
2022-11-27T11:32:38.159Z,9.82
2022-11-27T11:33:47.319Z,9.87
2022-11-27T11:34:59.163Z,9.89
2022-11-27T11:36:07.166Z,9.92
2022-11-27T11:37:15.300Z,9.97
2022-11-27T11:38:17.079Z,10.00
2022-11-27T11:39:38.890Z,10.02
2022-11-27T11:40:44.682Z,10.02
2022-11-27T11:41:46.214Z,10.02
2022-11-27T11:43:13.209Z,10.08
2022-11-27T11:44:34.159Z,10.11
2022-11-27T11:45:44.981Z,10.05
2022-11-27T11:46:50.864Z,10.08
2022-11-27T11:47:53.330Z,10.11
2022-11-27T11:48:58.553Z,10.14
2022-11-27T11:50:00.103Z,10.17
2022-11-27T11:51:02.294Z,10.22
2022-11-27T11:52:07.450Z,10.25
2022-11-27T11:53:27.770Z,10.27
2022-11-27T11:54:29.189Z,10.27
2022-11-27T11:55:45.197Z,10.26
2022-11-27T11:57:11.770Z,10.30
2022-11-27T11:58:13.249Z,10.38
2022-11-27T11:59:37.554Z,10.39
2022-11-27T12:00:58.472Z,10.42
2022-11-27T12:02:27.764Z,10.46
2022-11-27T12:03:51.629Z,10.43
2022-11-27T12:05:03.526Z,10.45
2022-11-27T12:06:21.293Z,10.46
2022-11-27T12:07:36.109Z,10.49
2022-11-27T12:08:37.819Z,10.54
2022-11-27T12:09:59.107Z,10.57
2022-11-27T12:11:06.714Z,10.63
2022-11-27T12:12:29.407Z,10.67
2022-11-27T12:13:39.745Z,10.70
2022-11-27T12:14:44.329Z,10.71
2022-11-27T12:16:10.177Z,10.75
2022-11-27T12:17:11.821Z,10.74
2022-11-27T12:18:39.739Z,10.77
2022-11-27T12:19:56.325Z,10.79
2022-11-27T12:21:03.843Z,10.76
2022-11-27T12:22:30.392Z,10.72
2022-11-27T12:23:34.943Z,10.68
2022-11-27T12:24:44.074Z,10.61
2022-11-27T12:25:48.591Z,10.66
2022-11-27T12:26:59.128Z,10.69
2022-11-27T12:28:03.711Z,10.70
2022-11-27T12:29:15.439Z,10.70
2022-11-27T12:30:23.293Z,10.67
2022-11-27T12:31:31.554Z,10.62
2022-11-27T12:32:42.248Z,10.66
2022-11-27T12:33:52.801Z,10.66
2022-11-27T12:35:12.927Z,10.70
2022-11-27T12:36:33.231Z,10.75
2022-11-27T12:37:50.310Z,10.78
2022-11-27T12:38:51.754Z,10.78
2022-11-27T12:40:11.969Z,10.76
2022-11-27T12:41:25.327Z,10.79
2022-11-27T12:42:46.114Z,10.80
2022-11-27T12:44:08.435Z,10.76
2022-11-27T12:45:19.900Z,10.77
2022-11-27T12:46:21.384Z,10.78
2022-11-27T12:47:24.358Z,10.78
2022-11-27T12:48:27.913Z,10.71
2022-11-27T12:49:34.090Z,10.76
2022-11-27T12:50:41.185Z,10.78
2022-11-27T12:51:47.758Z,10.77
2022-11-27T12:52:57.925Z,10.74
2022-11-27T12:54:09.619Z,10.68
2022-11-27T12:55:25.429Z,10.68
2022-11-27T12:56:40.667Z,10.73
2022-11-27T12:57:47.463Z,10.73
2022-11-27T12:58:51.243Z,10.76
2022-11-27T13:00:01.393Z,10.80
2022-11-27T13:01:07.306Z,10.78
2022-11-27T13:02:24.595Z,10.81
2022-11-27T13:03:31.078Z,10.79
2022-11-27T13:04:35.078Z,10.82
2022-11-27T13:05:48.646Z,10.83
2022-11-27T13:07:00.019Z,10.87
2022-11-27T13:08:02.603Z,10.88
2022-11-27T13:09:13.929Z,10.81
2022-11-27T13:10:28.011Z,10.82
2022-11-27T13:12:43.212Z,10.87
2022-11-27T13:13:48.278Z,10.86
2022-11-27T13:15:02.909Z,10.80
2022-11-27T13:16:08.319Z,10.80
2022-11-27T13:17:11.700Z,10.80
2022-11-27T13:18:23.956Z,10.77
2022-11-27T13:19:46.072Z,10.72
2022-11-27T13:20:52.161Z,10.70
2022-11-27T13:21:54.347Z,10.68
2022-11-27T13:22:55.841Z,10.69
2022-11-27T13:23:59.733Z,10.71
2022-11-27T13:25:01.317Z,10.67
2022-11-27T13:26:06.438Z,10.65
2022-11-27T13:27:11.382Z,10.68
2022-11-27T13:28:40.398Z,10.69
2022-11-27T13:29:41.877Z,10.70
2022-11-27T13:30:43.646Z,10.70
2022-11-27T13:31:45.275Z,10.71
2022-11-27T13:32:48.375Z,10.66
2022-11-27T13:33:49.914Z,10.62
2022-11-27T13:34:51.599Z,10.63
2022-11-27T13:36:05.739Z,10.67
2022-11-27T13:37:07.307Z,10.69
2022-11-27T13:38:10.286Z,10.71
2022-11-27T13:39:22.267Z,10.69
2022-11-27T13:40:26.902Z,10.73
2022-11-27T13:41:39.924Z,10.63
2022-11-27T13:42:42.887Z,10.62
2022-11-27T13:43:44.412Z,10.66
2022-11-27T13:44:52.681Z,10.66
2022-11-27T13:46:00.639Z,10.66
2022-11-27T13:47:05.315Z,10.56
2022-11-27T13:48:18.330Z,10.53
2022-11-27T13:49:26.192Z,10.61
2022-11-27T13:50:31.271Z,10.67
2022-11-27T13:51:39.062Z,10.66
2022-11-27T13:53:03.276Z,10.64
2022-11-27T13:54:14.734Z,10.64
2022-11-27T13:55:22.633Z,10.65
2022-11-27T13:56:31.159Z,10.64
2022-11-27T13:57:38.452Z,10.59
2022-11-27T13:58:40.485Z,10.58
2022-11-27T13:59:41.944Z,10.61
2022-11-27T14:00:49.564Z,10.65
2022-11-27T14:01:55.096Z,10.66
2022-11-27T14:02:56.565Z,10.69
2022-11-27T14:04:16.954Z,10.70
2022-11-27T14:05:21.895Z,10.71
2022-11-27T14:06:23.422Z,10.69
2022-11-27T14:07:24.897Z,10.71
2022-11-27T14:08:35.365Z,10.72
2022-11-27T14:09:39.899Z,10.72
2022-11-27T14:10:47.061Z,10.75
2022-11-27T14:11:48.579Z,10.74
2022-11-27T14:13:01.650Z,10.74
2022-11-27T14:14:03.490Z,10.76
2022-11-27T14:15:20.568Z,10.77
2022-11-27T14:16:30.409Z,10.76
2022-11-27T14:17:41.946Z,10.72
2022-11-27T14:18:51.892Z,10.66
2022-11-27T14:19:59.902Z,10.65
2022-11-27T14:21:02.152Z,10.68
2022-11-27T14:22:14.315Z,10.71
2022-11-27T14:23:28.614Z,10.75
2022-11-27T14:24:33.042Z,10.74